Tiempo atmosférico en la estación meteorológica de La Roda de Andalucía, Sevilla (410 m.)



Fecha
DESCASC
Temp. máxima en grados centígrados (hora)
DESCASC
Temp. mínima en grados centígrados (hora)
DESCASC
Temp. media en grados centígrados
DESCASC
Racha de viento máxima en m/sg (hora)
DESCASC
Velocidad máxima media en intervalos de 10 minutos(hora)
DESCASC
Precipitaciones diarias en mm
DESCASC
Precipitaciones de 00:00 a 06:00 en mm
DESCASC
Precipitaciones de 06:00 a 12:00 en mm
DESCASC
Precipitaciones de 12:00 a 18:00 en mm
DESCASC
Precipitaciones de 18:00 a 24:00 en mm
DESCASC
19-09-2019 31.5 (16:30) 13.8 (08:10) 22.7 6.39 (14:30) 3.33 (19:20) 0 0 0 0 0
18-09-2019 28.9 (17:40) 15.1 (07:50) 22 5.56 (15:40) 3.33 (17:10) 0 0 0 0 0
17-09-2019 27.8 (17:40) 17.4 (00:00) 22.6 10 (13:00) 5 (13:10) 0.2 0 0 0.2 0
16-09-2019 30.6 (18:00) 17.6 (00:00) 24.1 7.5 (19:20) 3.61 (20:00) 0 0 0 0 0
15-09-2019 27.5 (17:00) 19.6 (00:00) 23.6 5 (15:10) 2.78 (01:30) 5.8 0 5.8 0 0
14-09-2019 24.7 (18:20) 15.2 (00:00) 20 7.78 (10:50) 4.17 (15:00) 18.4 3 12.6 2.8 0
13-09-2019 28.4 (15:00) 15.4 (00:00) 21.9 8.89 (07:40) 5 (08:20) 8 0 0 2 6
12-09-2019 27.1 (17:50) 13.3 (00:00) 20.2 8.61 (12:50) 5.28 (14:30) 0 0 0 0 0
11-09-2019 26.1 (16:30) 11.5 (00:00) 18.8 11.67 (17:00) 6.94 (15:20) 0 0 0 0 0
10-09-2019 26.3 (18:00) 14.8 (08:20) 20.5 11.67 (16:30) 7.5 (16:30) 0 0 0 0 0
09-09-2019 31.3 (16:40) 17 (05:30) 24.1 8.06 (17:30) 4.44 (17:10) 0 0 0 0 0
08-09-2019 30.3 (16:00) 18.1 (00:00) 24.2 10.56 (00:40) 6.11 (00:30) 1.6 0.2 0 0 1.4
07-09-2019 30.4 (14:50) 19.6 (00:00) 25 12.22 (15:20) 6.39 (16:00) 0 0 0 0 0
06-09-2019 32.1 (16:40) 21.3 (00:00) 26.7 11.39 (13:30) 6.39 (11:10) 0 0 0 0 0
05-09-2019 36.6 (16:30) 20.8 (00:00) 28.7 10.56 (18:10) 6.39 (18:20) 0 0 0 0 0
04-09-2019 35.1 (18:20) 21.5 (00:00) 28.3 8.33 (00:40) 5 (00:30) 0 0 0 0 0
03-09-2019 34.5 (16:20) 20.6 (00:00) 27.6 10.56 (19:30) 5.83 (19:20) 0 0 0 0 0
02-09-2019 34.8 (13:20) 19 (00:00) 26.9 12.78 (17:10) 6.67 (16:30) 0 0 0 0 0
01-09-2019 37.8 (17:10) 20.5 (08:10) 29.1 8.33 (15:10) 4.72 (20:20) 0 0 0 0 0
31-08-2019 36.7 (16:40) 19.9 (08:10) 28.3 7.22 (21:40) 4.17 (21:50) 0 0 0 0 0
30-08-2019 34.6 (15:20) 18.5 (07:30) 26.5 10.28 (13:50) 5.56 (13:50) 0 0 0 0 0

Gráficas

Temp. máximas Temp. mínimas Temp. medias Precipitaciones Rachas de viento máximas Velocidades máximas media en intervalos de 10 minutos

Datos horarios

Fecha y hora oficial Temperatura (ºC) Velocidad del viento (km/h) Dirección del viento Racha (km/h) Dirección de racha Precipitación (mm) Presión (hPa) Tendencia (hPa) Humedad (%)
2019-09-19 23:00:00 21.7 8 Sudoeste 13 Sudoeste 0 968 1.1 60
2019-09-19 22:00:00 22.9 6 Sur 13 Sur 0 967.8 1 56
2019-09-19 21:00:00 24.3 8 Sur 17 Sur 0 967.2 0.6 50
2019-09-19 20:00:00 26.3 10 Sur 23 Sudeste 0 966.9 0.2 42
2019-09-19 19:00:00 28.3 9 Sur 21 Sudeste 0 966.8 -0.2 37
2019-09-19 18:00:00 29.7 11 Sudeste 23 Sur 0 966.6 -1.2 33
2019-09-19 17:00:00 31.1 7 Sur 17 Sudeste 0 966.7 -1.7 29
2019-09-19 16:00:00 30.9 7 Este 21 Sur 0 967 -1.8 29
2019-09-19 15:00:00 30.5 8 Sudoeste 23 Sur 0 967.8 -1.3 31
2019-09-19 14:00:00 28.9 9 Sur 19 Sur 0 968.4 -0.7 34
2019-09-19 13:00:00 26 5 Noroeste 9 Norte 0 968.8 -0.3 47
2019-09-19 12:00:00 23.3 6 Norte 12 Norte 0 969.1 0.3 56
2019-09-19 11:00:00 21 4 Noroeste 8 Norte 0 969.1 0.5 65
2019-09-19 10:00:00 18.3 3 Noroeste 7 Norte 0 969.1 0.7 84
2019-09-19 09:00:00 14.7 2 Sur 6 Sur 0 968.8 0.3 91
2019-09-19 08:00:00 13.9 4 Sur 7 Sur 0 968.6 0.2 90
2019-09-19 07:00:00 13.9 4 Sur 5 Oeste 0 968.4 -0.3 90
2019-09-19 06:00:00 14.2 2 Oeste 4 Oeste 0 968.5 -0.5 89
2019-09-19 05:00:00 14.7 0 Calma 4 Sudeste 0 968.4 -0.5 88
2019-09-19 04:00:00 15.2 3 Sur 6 Sur 0 968.7 -0.3 87
2019-09-19 03:00:00 16 4 Sur 6 Sur 0 969 0.2 85
2019-09-19 02:00:00 17 2 Sudoeste 6 Sur 0 968.9 0.1 80
2019-09-19 01:00:00 19 4 Sur 16 Oeste 0 969 0.6 68
2019-09-19 00:00:00 20.2 10 Oeste 17 Oeste 0 968.8 0.9 61
2019-09-18 23:00:00 21 9 Oeste 17 Oeste 0 968.8 1.3 59
2019-09-18 22:00:00 21.1 3 Sur 6 Sur 0 968.4 1 67
2019-09-18 21:00:00 23.5 2 Sudoeste 10 Noroeste 0 967.9 0.6 58
2019-09-18 20:00:00 26.4 6 Noroeste 15 Noroeste 0 967.5 -0.1 40
2019-09-18 19:00:00 28.2 9 Noroeste 19 Norte 0 967.4 -0.6 37
2019-09-18 18:00:00 28.4 8 Oeste 19 Norte 0 967.3 -1.1 37
2019-09-18 17:00:00 28.3 7 Nordeste 18 Norte 0 967.6 -1.2 43
2019-09-18 16:00:00 27.7 7 Nordeste 20 Norte 0 968 -1.1 47
2019-09-18 15:00:00 27.3 8 Norte 16 Nordeste 0 968.4 -0.7 46
2019-09-18 14:00:00 26.7 4 Nordeste 16 Norte 0 968.8 -0.3 48
2019-09-18 13:00:00 24.7 8 Norte 18 Norte 0 969.1 0.3 60
2019-09-18 12:00:00 23.7 8 Nordeste 17 Norte 0 969.1 0.8 66
2019-09-18 11:00:00 21.8 6 Nordeste 12 Nordeste 0 969.1 1.5 76
2019-09-18 10:00:00 18.7 4 Noroeste 6 Oeste 0 968.8 1.4 91
2019-09-18 09:00:00 16 3 Sur 7 Sur 0 968.3 0.7 92
2019-09-18 08:00:00 15.1 5 Sur 8 Sur 0 967.6 0.1 91
2019-09-18 07:00:00 15.4 4 Sur 6 Sur 0 967.4 -0.2 90
2019-09-18 06:00:00 16 3 Sudoeste 6 Sur 0 967.6 -0.4 90
2019-09-18 05:00:00 16.5 2 Sudeste 7 Sur 0 967.5 -0.8 90
2019-09-18 04:00:00 17.1 6 Sur 9 Sur 0 967.6 -0.7 90
2019-09-18 03:00:00 18 0 Calma 8 Sur 0 968 0 89
2019-09-18 02:00:00 18.5 5 Sur 9 Sudoeste 0 968.3 0.7 85
2019-09-18 01:00:00 19.5 6 Sur 18 Sudoeste 0 968.3 1.2 82
2019-09-18 00:00:00 20.2 12 Sudoeste 19 Sudoeste 0 968 1.5 80
2019-09-17 23:00:00 20.8 5 Sudoeste 13 Sur 0 967.6 1 73
2019-09-17 22:00:00 21.4 4 Sur 15 Sur 0 967.1 0.5 66
2019-09-17 21:00:00 22.7 9 Sur 15 Sur 0 966.5 -0.6 61
2019-09-15 18:00:00 26.7 5 Norte 13 Norte 0 969.3 -1 52
2019-09-15 17:00:00 27 5 Oeste 15 Norte 0 969.6 -1.2 54
2019-09-15 16:00:00 26 10 Norte 18 Norte 0 969.9 -1.2 57
2019-09-15 15:00:00 24.6 8 Norte 15 Norte 0 970.3 -1 67
2019-09-15 14:00:00 25.5 7 Oeste 14 Oeste 0 970.8 -0.1 62
2019-09-15 13:00:00 22.7 5 Noroeste 9 Noroeste 0 971.1 0.5 81
2019-09-15 12:00:00 20.6 6 Oeste 9 Oeste 0.2 971.3 1.1 90
2019-09-15 11:00:00 20.1 4 Oeste 9 Sudoeste 4.4 970.9 0.8 90
2019-09-15 10:00:00 20.1 0 Calma 10 Oeste 0.8 970.6 0.6 91
2019-09-15 09:00:00 19.8 4 Sudoeste 6 Sudoeste 0 970.2 0.4 91
2019-09-15 08:00:00 19.6 3 Sur 12 Sudoeste 0.4 970.1 0 91
2019-09-15 07:00:00 19.6 4 Sur 11 Sudoeste 0 970 -0.3 90
2019-09-15 06:00:00 19.9 5 Sur 7 Este 0 969.8 -0.6 90
2019-09-15 05:00:00 19.9 2 Norte 6 Sudoeste 0 970.1 -0.3 90
2019-09-15 04:00:00 19.8 4 Sudoeste 9 Sur 0 970.3 -0.5 89
2019-09-15 03:00:00 19.8 5 Oeste 17 Sudoeste 0 970.4 -0.5 88
2019-09-15 02:00:00 20.5 8 Sur 17 Sur 0 970.4 -0.6 86
2019-09-15 01:00:00 20.5 9 Sudoeste 17 Sur 0 970.8 0.4 86
2019-09-15 00:00:00 20 5 Sur 14 Sur 0 970.9 1 88
2019-09-14 23:00:00 19.9 5 Sur 8 Sur 0 971 1.4 87
2019-09-14 22:00:00 21 4 Sudoeste 21 Sur 0 970.4 1 82
2019-09-14 21:00:00 21.8 6 Sur 13 Sur 0 969.9 0.7 79
2019-09-14 20:00:00 23.2 6 Sur 16 Sur 0 969.6 0 73
2019-09-14 19:00:00 24.3 4 Oeste 13 Norte 0 969.4 -0.7 61
2019-09-14 18:00:00 23.9 5 Norte 16 Norte 0 969.2 -1.4 66
2019-09-14 17:00:00 23.4 11 Norte 16 Norte 0 969.6 -1.5 65
2019-09-14 16:00:00 22.3 7 Nordeste 20 Norte 0 970.1 -1.8 69
2019-09-14 15:00:00 21.4 15 Norte 22 Norte 0 970.6 -1.3 74
2019-09-14 14:00:00 20.3 3 Sudeste 14 Sur 0 971.1 -1 78
2019-09-14 13:00:00 17.9 5 Sur 20 Sur 2.8 971.9 -0.5 89
2019-09-14 12:00:00 17.4 8 Sudeste 18 Sudeste 0 971.9 -0.8 87
2019-09-14 11:00:00 16.5 11 Sudeste 28 Sudeste 2 972.1 0.6 90
2019-09-14 10:00:00 15.9 11 Sur 23 Sur 4.2 972.4 1.8 91
2019-09-14 09:00:00 16.6 9 Sudeste 19 Sur 3.2 972.7 2 91
2019-09-14 08:00:00 16.6 9 Sur 21 Sudeste 2 971.5 1.1 90
2019-09-14 07:00:00 16.7 4 Este 12 Oeste 1.2 970.6 0.6 91
2019-09-14 06:00:00 16.4 6 Oeste 16 Sur 2.2 970.7 -0.5 90
2019-09-14 05:00:00 16.2 8 Sur 21 Sur 0 970.4 -0.9 89
2019-09-14 04:00:00 15.9 4 Este 14 Sur 0.8 970 -1.7 87
2019-09-14 03:00:00 15.5 8 Sur 12 Sur 0 971.2 -0.7 88
2019-09-14 02:00:00 15.4 5 Sur 12 Sur 0 971.3 -0.7 86
2019-09-14 01:00:00 15.4 7 Sur 9 Sur 0 971.7 -0.2 89
2019-09-14 00:00:00 16.2 4 Sur 6 Sur 0 971.9 0.4 88
2019-09-13 23:00:00 16.1 3 Sudoeste 7 Sur 0 972 1.2 87
2019-09-13 22:00:00 16.2 3 Oeste 9 Nordeste 0 971.9 0.5 82
2019-09-13 21:00:00 17.1 5 Nordeste 10 Nordeste 0 971.5 -0.1 76
2019-09-13 20:00:00 17.2 5 Este 11 Este 0 970.8 0.8 85
2019-09-13 19:00:00 15.9 6 Oeste -- -- 6 971.4 1.4 85
2019-09-13 18:00:00 18.8 15 Noroeste 31 Norte 2 971.6 1.3 65
2019-09-13 17:00:00 25.7 8 Sudoeste 23 Sudoeste 0 970 -0.9 39
2019-09-13 16:00:00 25.7 8 Este 24 Este 0 970 -1.5 32
2019-09-13 15:00:00 28 10 Sudeste 22 Este 0 970.3 -1.6 28
2019-09-13 14:00:00 26.8 12 Sudeste 22 Nordeste 0 970.9 -0.6 30
2019-09-13 13:00:00 25.2 15 Este 25 Este 0 971.5 0.4 35
2019-09-13 12:00:00 24 9 Nordeste 20 Este 0 971.9 1.3 38
2019-09-13 11:00:00 22.8 9 Este 23 Este 0 971.5 0 46
2019-09-13 10:00:00 18.9 13 Nordeste 25 Este 0 971.1 -0.1 62
2019-09-13 09:00:00 17.7 10 Este 31 Este 0 970.6 -0.3 66
2019-09-13 08:00:00 18 12 Este 32 Este 0 971.5 0.2 65
2019-09-13 07:00:00 16.3 5 Este 8 Este 0 971.2 -0.3 80
2019-09-13 06:00:00 16.8 2 Oeste 8 Sudoeste 0 970.9 -1.6 78
2019-09-13 05:00:00 17.3 3 Oeste 9 Este 0 971.3 -1.7 79
2019-09-13 04:00:00 17.5 2 Oeste 7 Noroeste 0 971.5 -2.2 79
2019-09-13 03:00:00 17.7 4 Norte 8 Sudoeste 0 972.5 -0.8 79
2019-09-13 02:00:00 17.6 6 Oeste 10 Noroeste 0 973 -0.8 82
2019-09-13 01:00:00 17.9 4 Norte 14 Nordeste 0 973.7 0.4 81
2019-09-13 00:00:00 18.1 8 Nordeste 17 Nordeste 0 973.3 0.5 80
2019-09-12 23:00:00 19.6 9 Nordeste 24 Nordeste 0 973.8 1.5 67
2019-09-12 22:00:00 21.9 7 Nordeste 22 Nordeste 0 973.3 0.8 52
2019-09-12 21:00:00 22.5 9 Nordeste 31 Nordeste 0 972.8 0.2 49
2019-09-12 20:00:00 23.5 15 Nordeste 25 Nordeste 0 972.3 -0.1 44
2019-09-12 19:00:00 24.7 11 Nordeste 27 Este 0 972.5 -0.3 32
2019-09-12 18:00:00 25.2 13 Nordeste 27 Nordeste 0 972.6 -0.8 31
2019-09-12 17:00:00 25.2 12 Este 26 Este 0 972.4 -1.1 31
2019-09-12 16:00:00 25.4 11 Nordeste 29 Este 0 972.8 -1.1 33
2019-09-12 15:00:00 25.5 14 Este 31 Este 0 973.4 -0.5 31
2019-09-12 14:00:00 24.9 8 Nordeste 24 Este 0 973.5 0 33
2019-09-12 13:00:00 23.3 17 Este 31 Este 0 973.9 1.2 36
2019-09-12 12:00:00 21.9 15 Este 30 Este 0 973.9 1.9 41
2019-09-12 11:00:00 19.1 8 Nordeste 15 Nordeste 0 973.5 2.1 50
2019-09-12 10:00:00 18.5 3 Este 10 Norte 0 972.7 0.8 52
2019-09-12 09:00:00 16.6 4 Norte 10 Norte 0 972 0.1 58
2019-09-12 08:00:00 15.1 2 Sudoeste 8 Norte 0 971.4 -0.6 61
2019-09-12 07:00:00 15.3 4 Nordeste 8 Norte 0 971.9 -0.7 61
2019-09-12 06:00:00 13.6 2 Oeste 9 Sur 0 971.9 -0.6 61
2019-09-12 05:00:00 14.2 3 Este 11 Este 0 972 -0.7 59
2019-09-12 04:00:00 16.1 8 Este 19 Este 0 972.6 0.3 55
2019-09-12 03:00:00 15.1 7 Este 12 Este 0 972.5 0.5 54
2019-09-12 02:00:00 15.4 5 Este 9 Sudeste 0 972.7 0.8 52
2019-09-12 01:00:00 18.4 5 Norte 20 Norte 0 972.3 1.2 44
2019-09-12 00:00:00 20.2 13 Nordeste 33 Nordeste 0 972 1.6 37
2019-09-11 23:00:00 22 12 Nordeste 23 Nordeste 0 971.9 2.2 32
2019-09-11 22:00:00 22.8 5 Nordeste 18 Norte 0 971.1 1.6 32
2019-09-11 21:00:00 23.4 9 Nordeste 28 Nordeste 0 970.4 0.9 29
2019-09-11 20:00:00 24.5 17 Nordeste 27 Norte 0 969.7 0 27
2019-09-11 19:00:00 25.2 15 Nordeste 33 Norte 0 969.5 -0.6 26
2019-09-11 18:00:00 25.1 21 Norte 40 Nordeste 0 969.5 -0.7 26
2019-09-11 17:00:00 24.4 19 Nordeste 42 Nordeste 0 969.7 -0.8 28
2019-09-11 16:00:00 25.5 19 Nordeste 41 Nordeste 0 970.1 -1.1 25
2019-09-11 15:00:00 23.3 16 Nordeste 37 Norte 0 970.2 -0.8 29
2019-09-11 14:00:00 23.7 20 Norte 35 Nordeste 0 970.5 -0.5 28
2019-09-11 13:00:00 22.2 17 Nordeste 35 Norte 0 971.2 0.3 30
2019-09-11 12:00:00 20.7 17 Nordeste 32 Nordeste 0 971 0.7 33
2019-09-11 11:00:00 19.4 17 Nordeste 36 Nordeste 0 971 1.1 36
2019-09-11 10:00:00 17.5 14 Nordeste 25 Nordeste 0 970.9 1.6 41
2019-09-11 09:00:00 14.9 9 Norte 16 Norte 0 970.3 1.7 50
2019-09-11 08:00:00 12.9 4 Norte 15 Norte 0 969.9 1.3 58
2019-09-11 07:00:00 13.2 6 Norte 17 Noroeste 0 969.3 0.2 56
2019-09-11 06:00:00 14.3 10 Noroeste 19 Norte 0 968.6 -0.5 52
2019-09-11 05:00:00 12.7 8 Noroeste 12 Noroeste 0 968.6 -0.4 53
2019-09-11 04:00:00 15 6 Norte 16 Nordeste 0 969.1 0.3 44
2019-09-11 03:00:00 12.4 3 Nordeste 10 Norte 0 969.1 0.8 46
2019-09-11 02:00:00 12.4 5 Norte 9 Norte 0 969 1 44
2019-09-11 01:00:00 13.9 5 Sur 8 Sur 0 968.8 1.5 37
2019-09-11 00:00:00 16.2 3 Sudeste 13 Noroeste 0 968.3 1.6 33
2019-09-10 23:00:00 21.1 10 Noroeste 21 Norte 0 968 1.7 24
2019-09-10 22:00:00 22.2 7 Noroeste 21 Noroeste 0 967.3 1.5 23
2019-09-10 21:00:00 22.7 9 Noroeste 27 Norte 0 966.7 0.8 24
2019-09-10 20:00:00 24.2 18 Norte 35 Noroeste 0 966.3 0.2 20
2019-09-10 19:00:00 25.1 20 Norte 37 Norte 0 965.8 -0.5 20
2019-09-10 18:00:00 25.6 22 Noroeste 42 Noroeste 0 965.9 -0.9 21
2019-09-10 17:00:00 25 18 Noroeste 42 Noroeste 0 966.1 -1.3 24
2019-09-10 16:00:00 25.1 21 Noroeste 39 Noroeste 0 966.3 -1.7 27
2019-09-10 15:00:00 24 18 Noroeste 36 Noroeste 0 966.8 -1.2 34
2019-09-10 14:00:00 22.3 23 Noroeste 36 Noroeste 0 967.4 -0.7 37
2019-09-10 13:00:00 20.5 21 Noroeste 34 Noroeste 0 968 0.2 43
2019-09-10 12:00:00 20.5 15 Oeste 27 Oeste 0 968 0.8 43
2019-09-10 11:00:00 18.8 16 Noroeste 29 Noroeste 0 968.1 1.2 47
2019-09-10 10:00:00 16.5 9 Noroeste 17 Noroeste 0 967.8 0.8 55
2019-09-10 09:00:00 15.7 3 Sur 12 Sudoeste 0 967.2 0.2 59
2019-09-10 08:00:00 15 8 Sudoeste 14 Sudoeste 0 966.9 -0.4 64
2019-09-10 07:00:00 16 9 Sudoeste 17 Sudoeste 0 967 -0.6 61
2019-09-10 06:00:00 16.8 10 Sudoeste 14 Oeste 0 967 -1.4 60
2019-09-10 05:00:00 19.5 8 Sudoeste 22 Oeste 0 967.3 -1.5 47
2019-09-10 04:00:00 21.3 12 Oeste 23 Oeste 0 967.6 -1.5 43
2019-09-10 03:00:00 22 10 Sudoeste 21 Sudoeste 0 968.4 -0.8 46
2019-09-10 02:00:00 21.5 6 Oeste 24 Oeste 0 968.8 -0.4 51
2019-09-10 01:00:00 22.2 16 Oeste 30 Oeste 0 969.1 0.3 49
2019-09-10 00:00:00 23 14 Oeste 23 Sudoeste 0 969.2 1 46
2019-09-09 23:00:00 23.8 10 Sudoeste 18 Oeste 0 969.2 1.3 46
2019-09-09 22:00:00 25.3 8 Sudoeste 21 Oeste 0 968.8 0.8 39
2019-09-09 21:00:00 26.8 9 Sudoeste 26 Oeste 0 968.2 0.1 29
2019-09-09 20:00:00 28.9 12 Oeste 26 Oeste 0 967.9 -0.5 26
2019-09-09 19:00:00 30.4 14 Oeste 28 Oeste 0 968 -0.9 24
2019-09-09 18:00:00 30.8 14 Oeste 29 Noroeste 0 968.1 -1.2 25
2019-09-09 17:00:00 30.7 15 Oeste 27 Noroeste 0 968.4 -1.6 27
2019-09-09 16:00:00 29.8 10 Norte 21 Norte 0 968.9 -1.8 26
2019-09-09 15:00:00 29.3 9 Norte 18 Norte 0 969.3 -1.7 22
2019-09-09 14:00:00 28.4 7 Noroeste 22 Norte 0 970 -0.8 36
2019-09-09 13:00:00 25.6 5 Nordeste 13 Noroeste 0 970.7 0.1 52
2019-09-09 12:00:00 24.4 7 Noroeste 14 Noroeste 0 971 0.6 57
2019-09-09 11:00:00 23.1 4 Oeste 9 Sudoeste 0 970.8 0.9 61
2019-09-09 10:00:00 21.1 4 Sudoeste 9 Sudoeste 0 970.6 0.9 65
2019-09-09 09:00:00 17.9 5 Sur 10 Sur 0 970.4 0.7 78
2019-09-09 08:00:00 17.2 5 Sur 9 Sur 0 969.9 -0.2 80
2019-09-09 07:00:00 17.3 5 Sur 12 Sur 0 969.7 -0.6 82
2019-09-09 06:00:00 17.1 6 Sur 11 Sur 0 969.7 -0.8 82
2019-09-09 05:00:00 17.3 7 Sur 9 Sur 0 970.1 -0.4 76
2019-09-09 04:00:00 18 5 Sur 11 Sur 0 970.3 0.2 74
2019-09-09 03:00:00 18 7 Sur 9 Sur 0 970.5 0.5 75
2019-09-09 02:00:00 17.4 6 Sur 10 Sur 0 970.5 0 79
2019-09-09 01:00:00 18.2 3 Sur 9 Sur 0 970.1 0.2 76
2019-09-09 00:00:00 19.1 5 Sur 11 Sudeste 0 970 0.6 76
2019-09-08 23:00:00 19.7 7 Sudeste 22 Sur 0 970.5 1.3 70
2019-09-08 22:00:00 19.3 9 Sur 19 Sudoeste 0 969.9 0.3 76
2019-09-08 21:00:00 19 5 Oeste 12 Sur 0.4 969.4 0.9 83
2019-09-08 20:00:00 19.6 4 Oeste 20 Este 0.6 969.2 1.2 76
2019-09-08 19:00:00 21.5 19 Este 37 Este 0.4 969.6 1.3 61
2019-09-08 18:00:00 27.8 8 Sur 24 Sudeste 0 968.5 -0.3 38
2019-09-08 17:00:00 29.5 15 Sur 30 Sudoeste 0 968 -1.1 33
2019-09-08 16:00:00 30.1 14 Sur 27 Sudoeste 0 968.3 -0.8 33
2019-09-08 15:00:00 29 12 Sudoeste 26 Sur 0 968.8 -0.2 38
2019-09-08 14:00:00 26.9 8 Sur 19 Sur 0 969.1 0.3 43
2019-09-08 13:00:00 26.3 7 Sur 15 Sur 0 969.1 0.8 48
2019-09-08 12:00:00 23.8 8 Sur 13 Sur 0 969 0.9 60
2019-09-08 11:00:00 22.1 4 Sur 11 Sur 0 968.8 0.7 70
2019-09-08 10:00:00 20.9 6 Sur 11 Sur 0 968.3 -0.2 74
2019-09-08 09:00:00 18.9 4 Nordeste 11 Sur 0 968.1 -0.1 79
2019-09-08 08:00:00 18.1 6 Sur 10 Sur 0 968.1 -0.5 84
2019-09-08 07:00:00 19.2 4 Sudeste 12 Nordeste 0 968.5 0 81
2019-09-08 06:00:00 19.5 0 Calma 18 Este 0.2 968.2 -0.5 84
2019-09-08 05:00:00 20.5 6 Este 12 Sur 0 968.6 0.2 78
2019-09-08 04:00:00 20.6 5 Sur 26 Sur 0 968.5 -0.1 77
2019-09-08 03:00:00 20.8 12 Sur 24 Sur 0 968.7 -0.1 77
2019-09-08 02:00:00 21.1 15 Sur 37 Sur 0 968.4 -0.3 74
2019-09-08 01:00:00 21.2 15 Sur 38 Sur 0 968.6 0.5 72
2019-09-08 00:00:00 21.7 17 Sur 43 Sur 0 968.8 1.7 72
2019-09-07 23:00:00 22.1 21 Sur 44 Sur 0 968.7 1.8 68
2019-09-07 22:00:00 22.5 22 Sur 39 Sur 0 968.1 1.3 65
2019-09-07 21:00:00 24 14 Sur 31 Sur 0 967.1 0.2 51
2019-09-07 20:00:00 26.1 16 Sur 31 Sur 0 966.9 -0.2 43
2019-09-07 19:00:00 27.4 21 Sur 38 Sudoeste 0 966.8 -1.1 38
2019-09-07 18:00:00 28.8 22 Sur 41 Sur 0 966.9 -1.2 33
2019-09-07 17:00:00 30.1 20 Sur 41 Sur 0 967.1 -1.4 29
2019-09-07 16:00:00 29.5 23 Sur 44 Sudeste 0 967.9 -0.7 30
2019-09-07 15:00:00 30.2 19 Sur 38 Sur 0 968.1 -0.8 29
2019-09-07 14:00:00 29.6 20 Sur 38 Sur 0 968.5 -0.2 33
2019-09-07 13:00:00 28.3 18 Sur 39 Sur 0 968.6 -0.2 41
2019-09-07 12:00:00 26.4 21 Sur 38 Sudeste 0 968.9 0.3 49
2019-09-07 11:00:00 25.3 19 Sur 40 Sur 0 968.7 0.3 54
2019-09-07 10:00:00 23.4 19 Sur 33 Sudeste 0 968.8 0.7 62
2019-09-07 09:00:00 20.4 12 Sur 20 Sur 0 968.6 0.6 78
2019-09-07 08:00:00 19.9 8 Sur 20 Sur 0 968.4 0.1 76
2019-09-07 07:00:00 20.1 8 Sur 21 Sur 0 968.1 -0.4 74
2019-09-07 06:00:00 20.6 9 Sur 28 Sur 0 968 -0.3 73
2019-09-07 05:00:00 21.2 12 Sur 27 Sur 0 968.3 -0.2 71
2019-09-07 04:00:00 21.5 14 Sur 37 Sur 0 968.5 0.3 69
2019-09-07 03:00:00 21.5 20 Sur 37 Sur 0 968.3 0.4 69
2019-09-07 02:00:00 21.6 15 Sur 33 Sur 0 968.5 0.8 57
2019-09-07 01:00:00 22.2 17 Sur 30 Sur 0 968.2 0.7 53
2019-09-07 00:00:00 22.5 14 Sur 28 Sur 0 967.9 0.8 51
2019-09-06 23:00:00 23.2 15 Sur 25 Sur 0 967.7 0.5 36
2019-09-06 22:00:00 24.1 13 Sur 23 Sur 0 967.5 0.7 32
2019-09-06 21:00:00 25.1 13 Sur 23 Sur 0 967.1 0.2 29
2019-09-06 20:00:00 26.6 14 Sur 28 Sur 0 967.2 0 30
2019-09-06 19:00:00 27.8 17 Sur 31 Sur 0 966.8 -1.2 28
2019-09-06 18:00:00 29.1 14 Sur 34 Sur 0 966.9 -1.6 28
2019-09-06 17:00:00 31.7 18 Sur 37 Sur 0 967.2 -1.7 24
2019-09-06 16:00:00 31.4 18 Sur 39 Sur 0 968 -1.1 27
2019-09-06 15:00:00 31 19 Sur 39 Sur 0 968.5 -0.9 30
2019-09-06 14:00:00 30.3 21 Sur 41 Sur 0 968.9 -0.2 33
2019-09-06 13:00:00 29.2 20 Sur 39 Sur 0 969.1 0.3 39
2019-09-06 12:00:00 27.8 20 Sur 41 Sudeste 0 969.4 0.6 44
2019-09-06 11:00:00 25.6 22 Sur 40 Sur 0 969.1 0.6 58
2019-09-06 10:00:00 23.9 17 Sur 35 Sur 0 968.8 0.6 67
2019-09-06 09:00:00 22 13 Sur 27 Sur 0 968.8 0.4 76
2019-09-06 08:00:00 21.3 13 Sur 27 Sur 0 968.5 0.2 79
2019-09-06 07:00:00 21.4 15 Sur 27 Sur 0 968.2 -0.1 79
2019-09-06 06:00:00 21.5 13 Sur 31 Sur 0 968.4 -0.2 76
2019-09-06 05:00:00 21.9 13 Sur 26 Sur 0 968.3 -0.4 72
2019-09-06 04:00:00 22.1 15 Sur 26 Sur 0 968.3 -0.5 69
2019-09-06 03:00:00 22.3 14 Sur 31 Sur 0 968.6 -0.4 65
2019-09-06 02:00:00 22.7 15 Sur 33 Sur 0 968.7 0.1 62
2019-09-06 01:00:00 22.9 17 Sur 34 Sur 0 968.8 0.7 62
2019-09-06 00:00:00 23.2 15 Sur 29 Sur 0 969 1.8 60
2019-09-05 23:00:00 23.2 12 Sur 28 Sur 0 968.6 1.8 58
2019-09-05 22:00:00 24.1 16 Sur 33 Sur 0 968.1 1.2 57
2019-09-05 21:00:00 25.2 19 Sur 33 Sudoeste 0 967.2 0.4 58
2019-09-05 20:00:00 27.7 18 Sur 37 Sudeste 0 966.8 0.3 50
2019-09-05 19:00:00 30.2 20 Sur 38 Sudoeste 0 966.9 0.1 42
2019-09-05 18:00:00 32.7 19 Sur 33 Sur 0 966.8 -0.8 33
2019-09-05 17:00:00 33.1 11 Sur 27 Sur 0 966.5 -1.5 28
2019-09-05 16:00:00 35.7 10 Sudeste 23 Sur 0 966.8 -1.5 22
2019-09-05 15:00:00 35.3 7 Sudoeste 20 Sudoeste 0 967.6 -1 25
2019-09-05 14:00:00 33.9 8 Sudeste 17 Este 0 968 -0.5 28
2019-09-05 13:00:00 32.3 6 Sudoeste 14 Sur 0 968.3 0 30
2019-09-05 12:00:00 30.5 6 Sudoeste 13 Sudoeste 0 968.6 0.4 36
2019-09-05 11:00:00 28.9 5 Sur 10 Sudoeste 0 968.5 0.7 42
2019-09-05 10:00:00 25.4 5 Sur 13 Sur 0 968.3 0.7 53
2019-09-05 09:00:00 22 9 Sur 15 Sur 0 968.2 0.6 65
2019-09-05 08:00:00 21.3 6 Sur 14 Sur 0 967.8 0.2 66
2019-09-05 07:00:00 21.3 4 Sur 9 Sur 0 967.6 -0.3 66
2019-09-05 06:00:00 21 8 Sur 12 Sur 0 967.6 -0.7 67
2019-09-05 05:00:00 20.9 7 Sur 13 Sur 0 967.6 -1.1 67
2019-09-05 04:00:00 21.5 5 Sur 13 Oeste 0 967.9 -1 64
2019-09-05 03:00:00 22.5 9 Sudoeste 14 Oeste 0 968.3 -0.6 64
2019-09-05 02:00:00 22.6 5 Sur 12 Sur 0 968.7 -0.4 61